sensor_id;sensor_type;location;lat;lon;timestamp;pressure;altitude;pressure_sealevel;temperature;humidity
59588;BME280;45412;54.472;18.464;2024-03-08T00:00:53;100919.36;;;-2.58;100.00
59588;BME280;45412;54.472;18.464;2024-03-08T00:03:45;100912.58;;;-2.59;100.00
59588;BME280;45412;54.472;18.464;2024-03-08T00:06:33;100909.27;;;-2.58;100.00
59588;BME280;45412;54.472;18.464;2024-03-08T00:09:21;100906.69;;;-2.61;100.00
59588;BME280;45412;54.472;18.464;2024-03-08T00:12:09;100905.52;;;-2.63;100.00
59588;BME280;45412;54.472;18.464;2024-03-08T00:14:58;100903.47;;;-2.68;100.00
59588;BME280;45412;54.472;18.464;2024-03-08T00:17:47;100902.66;;;-2.74;100.00
59588;BME280;45412;54.472;18.464;2024-03-08T00:20:36;100900.46;;;-2.82;100.00
59588;BME280;45412;54.472;18.464;2024-03-08T00:23:24;100897.59;;;-2.90;100.00
59588;BME280;45412;54.472;18.464;2024-03-08T00:26:12;100898.34;;;-2.96;100.00
59588;BME280;45412;54.472;18.464;2024-03-08T00:29:00;100900.64;;;-3.00;100.00
59588;BME280;45412;54.472;18.464;2024-03-08T00:31:49;100897.88;;;-3.03;100.00
59588;BME280;45412;54.472;18.464;2024-03-08T00:34:37;100898.58;;;-3.04;100.00
59588;BME280;45412;54.472;18.464;2024-03-08T00:37:25;100895.65;;;-3.07;100.00
59588;BME280;45412;54.472;18.464;2024-03-08T00:40:13;100893.06;;;-3.09;100.00
59588;BME280;45412;54.472;18.464;2024-03-08T00:43:02;100889.26;;;-3.10;100.00
59588;BME280;45412;54.472;18.464;2024-03-08T00:45:52;100886.83;;;-3.12;100.00
59588;BME280;45412;54.472;18.464;2024-03-08T00:48:39;100885.64;;;-3.14;100.00
59588;BME280;45412;54.472;18.464;2024-03-08T00:51:31;100884.11;;;-3.18;100.00
59588;BME280;45412;54.472;18.464;2024-03-08T00:54:19;100884.83;;;-3.22;100.00
59588;BME280;45412;54.472;18.464;2024-03-08T00:57:07;100882.78;;;-3.27;100.00
59588;BME280;45412;54.472;18.464;2024-03-08T00:59:55;100878.46;;;-3.29;100.00
59588;BME280;45412;54.472;18.464;2024-03-08T01:02:44;100876.06;;;-3.32;100.00
59588;BME280;45412;54.472;18.464;2024-03-08T01:05:33;100875.36;;;-3.33;100.00
59588;BME280;45412;54.472;18.464;2024-03-08T01:08:23;100873.47;;;-3.35;100.00
59588;BME280;45412;54.472;18.464;2024-03-08T01:11:13;100869.66;;;-3.35;100.00
59588;BME280;45412;54.472;18.464;2024-03-08T01:14:02;100867.04;;;-3.35;100.00
59588;BME280;45412;54.472;18.464;2024-03-08T01:16:50;100862.54;;;-3.35;100.00
59588;BME280;45412;54.472;18.464;2024-03-08T01:19:38;100860.13;;;-3.36;100.00
59588;BME280;45412;54.472;18.464;2024-03-08T01:22:26;100860.34;;;-3.41;100.00
59588;BME280;45412;54.472;18.464;2024-03-08T01:25:16;100856.37;;;-3.45;100.00
59588;BME280;45412;54.472;18.464;2024-03-08T01:28:05;100852.21;;;-3.47;100.00
59588;BME280;45412;54.472;18.464;2024-03-08T01:30:53;100851.54;;;-3.49;100.00
59588;BME280;45412;54.472;18.464;2024-03-08T01:33:44;100848.07;;;-3.50;100.00
59588;BME280;45412;54.472;18.464;2024-03-08T01:36:33;100842.86;;;-3.49;100.00
59588;BME280;45412;54.472;18.464;2024-03-08T01:39:21;100841.80;;;-3.47;100.00
59588;BME280;45412;54.472;18.464;2024-03-08T01:42:09;100842.14;;;-3.46;100.00
59588;BME280;45412;54.472;18.464;2024-03-08T01:45:00;100837.12;;;-3.48;100.00
59588;BME280;45412;54.472;18.464;2024-03-08T01:47:49;100837.13;;;-3.50;100.00
59588;BME280;45412;54.472;18.464;2024-03-08T01:50:37;100832.81;;;-3.52;100.00
59588;BME280;45412;54.472;18.464;2024-03-08T01:53:27;100831.27;;;-3.56;100.00
59588;BME280;45412;54.472;18.464;2024-03-08T01:56:17;100833.39;;;-3.59;100.00
59588;BME280;45412;54.472;18.464;2024-03-08T01:59:05;100828.89;;;-3.61;100.00
59588;BME280;45412;54.472;18.464;2024-03-08T02:02:00;100829.42;;;-3.62;100.00
59588;BME280;45412;54.472;18.464;2024-03-08T02:04:49;100824.39;;;-3.63;100.00
59588;BME280;45412;54.472;18.464;2024-03-08T02:07:41;100819.36;;;-3.62;100.00
59588;BME280;45412;54.472;18.464;2024-03-08T02:10:33;100816.23;;;-3.62;100.00
59588;BME280;45412;54.472;18.464;2024-03-08T02:13:21;100817.81;;;-3.64;100.00
59588;BME280;45412;54.472;18.464;2024-03-08T02:16:10;100814.70;;;-3.67;100.00
59588;BME280;45412;54.472;18.464;2024-03-08T02:18:58;100812.48;;;-3.71;100.00
59588;BME280;45412;54.472;18.464;2024-03-08T02:21:47;100815.80;;;-3.74;100.00
59588;BME280;45412;54.472;18.464;2024-03-08T02:24:35;100812.02;;;-3.79;100.00
59588;BME280;45412;54.472;18.464;2024-03-08T02:27:24;100813.78;;;-3.83;100.00
59588;BME280;45412;54.472;18.464;2024-03-08T02:30:17;100811.55;;;-3.85;100.00
59588;BME280;45412;54.472;18.464;2024-03-08T02:33:06;100810.49;;;-3.86;100.00
59588;BME280;45412;54.472;18.464;2024-03-08T02:35:55;100808.08;;;-3.87;100.00
59588;BME280;45412;54.472;18.464;2024-03-08T02:38:46;100803.91;;;-3.85;100.00
59588;BME280;45412;54.472;18.464;2024-03-08T02:41:34;100803.04;;;-3.84;100.00
59588;BME280;45412;54.472;18.464;2024-03-08T02:44:22;100800.25;;;-3.84;100.00
59588;BME280;45412;54.472;18.464;2024-03-08T02:47:10;100796.80;;;-3.85;100.00
59588;BME280;45412;54.472;18.464;2024-03-08T02:49:58;100795.79;;;-3.87;100.00
59588;BME280;45412;54.472;18.464;2024-03-08T02:52:46;100794.92;;;-3.90;100.00
59588;BME280;45412;54.472;18.464;2024-03-08T02:55:34;100795.45;;;-3.92;100.00
59588;BME280;45412;54.472;18.464;2024-03-08T02:58:23;100793.04;;;-3.94;100.00
59588;BME280;45412;54.472;18.464;2024-03-08T03:01:12;100791.99;;;-3.94;100.00
59588;BME280;45412;54.472;18.464;2024-03-08T03:04:00;100786.98;;;-3.95;100.00
59588;BME280;45412;54.472;18.464;2024-03-08T03:06:48;100788.01;;;-3.95;100.00
59588;BME280;45412;54.472;18.464;2024-03-08T03:09:37;100791.84;;;-3.95;100.00
59588;BME280;45412;54.472;18.464;2024-03-08T03:12:24;100787.50;;;-3.96;100.00
59588;BME280;45412;54.472;18.464;2024-03-08T03:15:13;100782.49;;;-3.99;100.00
59588;BME280;45412;54.472;18.464;2024-03-08T03:18:01;100777.80;;;-3.99;100.00
59588;BME280;45412;54.472;18.464;2024-03-08T03:20:50;100774.54;;;-4.01;100.00
59588;BME280;45412;54.472;18.464;2024-03-08T03:23:39;100777.84;;;-4.05;100.00
59588;BME280;45412;54.472;18.464;2024-03-08T03:26:27;100778.21;;;-4.09;100.00
59588;BME280;45412;54.472;18.464;2024-03-08T03:29:16;100779.45;;;-4.11;100.00
59588;BME280;45412;54.472;18.464;2024-03-08T03:32:04;100780.15;;;-4.13;100.00
59588;BME280;45412;54.472;18.464;2024-03-08T03:34:53;100781.70;;;-4.13;100.00
59588;BME280;45412;54.472;18.464;2024-03-08T03:37:41;100782.91;;;-4.11;100.00
59588;BME280;45412;54.472;18.464;2024-03-08T03:40:39;100781.52;;;-4.09;100.00
59588;BME280;45412;54.472;18.464;2024-03-08T03:43:28;100779.79;;;-4.09;100.00
59588;BME280;45412;54.472;18.464;2024-03-08T03:46:17;100782.02;;;-4.07;100.00
59588;BME280;45412;54.472;18.464;2024-03-08T03:49:05;100778.04;;;-4.05;100.00
59588;BME280;45412;54.472;18.464;2024-03-08T03:51:53;100780.98;;;-4.05;100.00
59588;BME280;45412;54.472;18.464;2024-03-08T03:54:41;100783.91;;;-4.04;100.00
59588;BME280;45412;54.472;18.464;2024-03-08T03:57:30;100781.47;;;-4.01;100.00
59588;BME280;45412;54.472;18.464;2024-03-08T04:00:19;100776.73;;;-3.95;100.00
59588;BME280;45412;54.472;18.464;2024-03-08T04:03:07;100778.09;;;-3.88;100.00
59588;BME280;45412;54.472;18.464;2024-03-08T04:05:57;100777.35;;;-3.81;100.00
59588;BME280;45412;54.472;18.464;2024-03-08T04:08:45;100776.96;;;-3.74;100.00
59588;BME280;45412;54.472;18.464;2024-03-08T04:11:34;100773.06;;;-3.65;100.00
59588;BME280;45412;54.472;18.464;2024-03-08T04:14:23;100773.17;;;-3.56;100.00
59588;BME280;45412;54.472;18.464;2024-03-08T04:17:11;100768.94;;;-3.47;100.00
59588;BME280;45412;54.472;18.464;2024-03-08T04:20:00;100769.05;;;-3.41;100.00
59588;BME280;45412;54.472;18.464;2024-03-08T04:22:48;100763.09;;;-3.34;100.00
59588;BME280;45412;54.472;18.464;2024-03-08T04:25:37;100760.64;;;-3.32;100.00
59588;BME280;45412;54.472;18.464;2024-03-08T04:28:25;100756.96;;;-3.29;100.00
59588;BME280;45412;54.472;18.464;2024-03-08T04:31:14;100757.98;;;-3.28;100.00
59588;BME280;45412;54.472;18.464;2024-03-08T04:34:03;100753.11;;;-3.26;100.00
59588;BME280;45412;54.472;18.464;2024-03-08T04:36:53;100754.30;;;-3.23;100.00
59588;BME280;45412;54.472;18.464;2024-03-08T04:39:41;100755.30;;;-3.19;100.00
59588;BME280;45412;54.472;18.464;2024-03-08T04:42:29;100754.41;;;-3.16;100.00
59588;BME280;45412;54.472;18.464;2024-03-08T04:45:21;100755.73;;;-3.10;100.00
59588;BME280;45412;54.472;18.464;2024-03-08T04:48:09;100755.30;;;-3.01;100.00
59588;BME280;45412;54.472;18.464;2024-03-08T04:50:57;100753.65;;;-2.94;100.00
59588;BME280;45412;54.472;18.464;2024-03-08T04:53:45;100750.09;;;-2.85;100.00
59588;BME280;45412;54.472;18.464;2024-03-08T04:56:34;100748.44;;;-2.78;100.00
59588;BME280;45412;54.472;18.464;2024-03-08T04:59:22;100748.88;;;-2.72;100.00
59588;BME280;45412;54.472;18.464;2024-03-08T05:02:10;100749.70;;;-2.67;100.00
59588;BME280;45412;54.472;18.464;2024-03-08T05:04:59;100744.62;;;-2.64;100.00
59588;BME280;45412;54.472;18.464;2024-03-08T05:07:47;100747.71;;;-2.61;100.00
59588;BME280;45412;54.472;18.464;2024-03-08T05:10:35;100748.03;;;-2.60;100.00
59588;BME280;45412;54.472;18.464;2024-03-08T05:13:24;100745.94;;;-2.58;100.00
59588;BME280;45412;54.472;18.464;2024-03-08T05:16:12;100748.52;;;-2.57;100.00
59588;BME280;45412;54.472;18.464;2024-03-08T05:19:03;100749.34;;;-2.52;100.00
59588;BME280;45412;54.472;18.464;2024-03-08T05:21:51;100744.57;;;-2.46;100.00
59588;BME280;45412;54.472;18.464;2024-03-08T05:24:38;100739.96;;;-2.39;100.00
59588;BME280;45412;54.472;18.464;2024-03-08T05:27:26;100739.70;;;-2.34;100.00
59588;BME280;45412;54.472;18.464;2024-03-08T05:30:16;100741.36;;;-2.27;100.00
59588;BME280;45412;54.472;18.464;2024-03-08T05:33:05;100740.23;;;-2.21;100.00
59588;BME280;45412;54.472;18.464;2024-03-08T05:35:53;100739.04;;;-2.11;100.00
59588;BME280;45412;54.472;18.464;2024-03-08T05:38:44;100740.51;;;-2.04;100.00
59588;BME280;45412;54.472;18.464;2024-03-08T05:41:32;100740.10;;;-1.99;100.00
59588;BME280;45412;54.472;18.464;2024-03-08T05:44:21;100741.05;;;-1.94;100.00
59588;BME280;45412;54.472;18.464;2024-03-08T05:47:10;100739.55;;;-1.87;100.00
59588;BME280;45412;54.472;18.464;2024-03-08T05:49:59;100739.28;;;-1.81;100.00
59588;BME280;45412;54.472;18.464;2024-03-08T05:52:47;100741.98;;;-1.75;100.00
59588;BME280;45412;54.472;18.464;2024-03-08T05:55:35;100744.11;;;-1.67;100.00
59588;BME280;45412;54.472;18.464;2024-03-08T05:58:24;100742.10;;;-1.61;100.00
59588;BME280;45412;54.472;18.464;2024-03-08T06:01:13;100740.90;;;-1.53;100.00
59588;BME280;45412;54.472;18.464;2024-03-08T06:04:03;100741.09;;;-1.43;100.00
59588;BME280;45412;54.472;18.464;2024-03-08T06:06:51;100738.83;;;-1.32;100.00
59588;BME280;45412;54.472;18.464;2024-03-08T06:09:43;100733.77;;;-1.24;100.00
59588;BME280;45412;54.472;18.464;2024-03-08T06:12:34;100735.67;;;-1.13;100.00
59588;BME280;45412;54.472;18.464;2024-03-08T06:15:28;100736.35;;;-1.03;100.00
59588;BME280;45412;54.472;18.464;2024-03-08T06:18:16;100736.92;;;-0.95;100.00
59588;BME280;45412;54.472;18.464;2024-03-08T06:21:05;100736.30;;;-0.91;100.00
59588;BME280;45412;54.472;18.464;2024-03-08T06:23:53;100738.27;;;-0.84;100.00
59588;BME280;45412;54.472;18.464;2024-03-08T06:26:51;100741.00;;;-0.72;100.00
59588;BME280;45412;54.472;18.464;2024-03-08T06:29:39;100740.96;;;-0.63;100.00
59588;BME280;45412;54.472;18.464;2024-03-08T06:32:27;100741.56;;;-0.49;100.00
59588;BME280;45412;54.472;18.464;2024-03-08T06:35:15;100742.66;;;-0.36;100.00
59588;BME280;45412;54.472;18.464;2024-03-08T06:38:04;100744.01;;;-0.24;100.00
59588;BME280;45412;54.472;18.464;2024-03-08T06:40:53;100748.09;;;-0.12;100.00
59588;BME280;45412;54.472;18.464;2024-03-08T06:43:47;100747.00;;;-0.02;100.00
59588;BME280;45412;54.472;18.464;2024-03-08T06:46:36;100746.79;;;0.06;100.00
59588;BME280;45412;54.472;18.464;2024-03-08T06:49:26;100746.19;;;0.10;100.00
59588;BME280;45412;54.472;18.464;2024-03-08T06:52:15;100748.56;;;0.12;100.00
59588;BME280;45412;54.472;18.464;2024-03-08T06:55:05;100750.54;;;0.18;100.00
59588;BME280;45412;54.472;18.464;2024-03-08T06:57:53;100751.89;;;0.20;100.00
59588;BME280;45412;54.472;18.464;2024-03-08T07:00:41;100750.89;;;0.25;100.00
59588;BME280;45412;54.472;18.464;2024-03-08T07:03:30;100747.59;;;0.31;100.00
59588;BME280;45412;54.472;18.464;2024-03-08T07:06:20;100748.88;;;0.36;100.00
59588;BME280;45412;54.472;18.464;2024-03-08T07:09:08;100748.04;;;0.42;100.00
59588;BME280;45412;54.472;18.464;2024-03-08T07:11:56;100749.30;;;0.48;100.00
59588;BME280;45412;54.472;18.464;2024-03-08T07:14:45;100747.23;;;0.54;100.00
59588;BME280;45412;54.472;18.464;2024-03-08T07:17:33;100742.34;;;0.60;100.00
59588;BME280;45412;54.472;18.464;2024-03-08T07:20:23;100735.11;;;0.70;100.00
59588;BME280;45412;54.472;18.464;2024-03-08T07:23:11;100737.89;;;0.83;100.00
59588;BME280;45412;54.472;18.464;2024-03-08T07:26:20;100730.15;;;1.11;100.00
59588;BME280;45412;54.472;18.464;2024-03-08T07:29:08;100731.30;;;1.39;100.00
59588;BME280;45412;54.472;18.464;2024-03-08T07:31:56;100729.66;;;1.70;100.00
59588;BME280;45412;54.472;18.464;2024-03-08T07:35:08;100727.02;;;2.10;98.35
59588;BME280;45412;54.472;18.464;2024-03-08T07:37:57;100725.43;;;2.49;96.94
59588;BME280;45412;54.472;18.464;2024-03-08T07:40:47;100718.71;;;2.76;94.96
59588;BME280;45412;54.472;18.464;2024-03-08T07:43:36;100715.33;;;2.93;92.83
59588;BME280;45412;54.472;18.464;2024-03-08T07:46:24;100711.52;;;3.06;91.62
59588;BME280;45412;54.472;18.464;2024-03-08T07:49:15;100710.20;;;3.14;90.22
59588;BME280;45412;54.472;18.464;2024-03-08T07:52:04;100709.34;;;3.42;89.41
59588;BME280;45412;54.472;18.464;2024-03-08T07:54:55;100701.10;;;5.07;88.96
59588;BME280;45412;54.472;18.464;2024-03-08T07:57:43;100693.84;;;7.26;77.67
59588;BME280;45412;54.472;18.464;2024-03-08T08:00:31;100688.92;;;7.45;69.91
59588;BME280;45412;54.472;18.464;2024-03-08T08:03:20;100685.59;;;7.12;70.43
59588;BME280;45412;54.472;18.464;2024-03-08T08:06:08;100689.34;;;8.41;69.00
59588;BME280;45412;54.472;18.464;2024-03-08T08:08:57;100681.63;;;10.12;64.35
59588;BME280;45412;54.472;18.464;2024-03-08T08:11:45;100676.78;;;10.95;58.91
59588;BME280;45412;54.472;18.464;2024-03-08T08:14:33;100676.36;;;12.08;52.39
59588;BME280;45412;54.472;18.464;2024-03-08T08:17:21;100669.95;;;13.23;49.13
59588;BME280;45412;54.472;18.464;2024-03-08T08:20:13;100668.61;;;14.34;45.33
59588;BME280;45412;54.472;18.464;2024-03-08T08:23:01;100663.60;;;15.27;42.55
59588;BME280;45412;54.472;18.464;2024-03-08T08:25:49;100663.78;;;16.25;38.92
59588;BME280;45412;54.472;18.464;2024-03-08T08:28:38;100656.96;;;16.85;36.50
59588;BME280;45412;54.472;18.464;2024-03-08T08:31:26;100657.27;;;17.31;35.73
59588;BME280;45412;54.472;18.464;2024-03-08T08:34:14;100656.39;;;17.60;34.75
59588;BME280;45412;54.472;18.464;2024-03-08T08:37:02;100652.59;;;17.83;33.69
59588;BME280;45412;54.472;18.464;2024-03-08T08:39:50;100653.94;;;18.22;32.86
59588;BME280;45412;54.472;18.464;2024-03-08T08:42:40;100651.77;;;18.38;32.09
59588;BME280;45412;54.472;18.464;2024-03-08T08:45:28;100643.48;;;18.58;31.26
59588;BME280;45412;54.472;18.464;2024-03-08T08:48:16;100639.23;;;18.83;30.75
59588;BME280;45412;54.472;18.464;2024-03-08T08:51:05;100633.75;;;18.88;29.81
59588;BME280;45412;54.472;18.464;2024-03-08T08:53:54;100632.25;;;18.72;29.57
59588;BME280;45412;54.472;18.464;2024-03-08T08:56:44;100633.05;;;18.56;29.32
59588;BME280;45412;54.472;18.464;2024-03-08T08:59:33;100633.84;;;18.82;29.52
59588;BME280;45412;54.472;18.464;2024-03-08T09:02:23;100636.88;;;19.25;28.42
59588;BME280;45412;54.472;18.464;2024-03-08T09:05:12;100636.17;;;19.35;28.07
59588;BME280;45412;54.472;18.464;2024-03-08T09:08:03;100633.70;;;19.49;28.21
59588;BME280;45412;54.472;18.464;2024-03-08T09:10:51;100629.27;;;19.85;28.39
59588;BME280;45412;54.472;18.464;2024-03-08T09:13:39;100626.98;;;20.15;27.36
59588;BME280;45412;54.472;18.464;2024-03-08T09:16:27;100626.38;;;20.10;27.16
59588;BME280;45412;54.472;18.464;2024-03-08T09:19:16;100624.70;;;19.91;26.96
59588;BME280;45412;54.472;18.464;2024-03-08T09:22:05;100620.57;;;20.22;27.01
59588;BME280;45412;54.472;18.464;2024-03-08T09:24:53;100619.41;;;20.39;26.80
59588;BME280;45412;54.472;18.464;2024-03-08T09:27:41;100614.33;;;20.54;25.97
59588;BME280;45412;54.472;18.464;2024-03-08T09:30:29;100611.90;;;20.49;25.38
59588;BME280;45412;54.472;18.464;2024-03-08T09:33:18;100614.71;;;20.74;25.50
59588;BME280;45412;54.472;18.464;2024-03-08T09:36:07;100608.64;;;21.15;24.79
59588;BME280;45412;54.472;18.464;2024-03-08T09:38:55;100607.35;;;21.47;24.31
59588;BME280;45412;54.472;18.464;2024-03-08T09:41:43;100603.52;;;21.76;23.85
59588;BME280;45412;54.472;18.464;2024-03-08T09:44:32;100608.41;;;21.55;23.14
59588;BME280;45412;54.472;18.464;2024-03-08T09:47:22;100602.98;;;21.59;23.43
59588;BME280;45412;54.472;18.464;2024-03-08T09:50:13;100595.88;;;21.82;22.73
59588;BME280;45412;54.472;18.464;2024-03-08T09:53:01;100589.75;;;21.81;22.36
59588;BME280;45412;54.472;18.464;2024-03-08T09:55:50;100587.08;;;21.55;22.04
59588;BME280;45412;54.472;18.464;2024-03-08T09:58:40;100585.79;;;21.68;22.17
59588;BME280;45412;54.472;18.464;2024-03-08T10:01:47;100582.95;;;22.03;21.63
59588;BME280;45412;54.472;18.464;2024-03-08T10:04:35;100579.84;;;22.57;21.10
59588;BME280;45412;54.472;18.464;2024-03-08T10:07:24;100576.95;;;22.94;20.60
59588;BME280;45412;54.472;18.464;2024-03-08T10:10:12;100574.20;;;22.89;20.18
59588;BME280;45412;54.472;18.464;2024-03-08T10:13:00;100569.02;;;22.85;19.87
59588;BME280;45412;54.472;18.464;2024-03-08T10:15:50;100567.08;;;23.03;19.59
59588;BME280;45412;54.472;18.464;2024-03-08T10:18:38;100568.79;;;23.05;20.11
59588;BME280;45412;54.472;18.464;2024-03-08T10:21:27;100566.97;;;22.95;20.28
59588;BME280;45412;54.472;18.464;2024-03-08T10:24:15;100568.23;;;23.11;20.19
59588;BME280;45412;54.472;18.464;2024-03-08T10:27:04;100563.81;;;23.73;20.32
59588;BME280;45412;54.472;18.464;2024-03-08T10:29:53;100566.04;;;23.78;19.98
59588;BME280;45412;54.472;18.464;2024-03-08T10:32:42;100565.66;;;24.06;20.31
59588;BME280;45412;54.472;18.464;2024-03-08T10:35:30;100564.13;;;24.10;19.70
59588;BME280;45412;54.472;18.464;2024-03-08T10:38:22;100561.77;;;24.34;19.47
59588;BME280;45412;54.472;18.464;2024-03-08T10:41:12;100558.77;;;24.35;19.21
59588;BME280;45412;54.472;18.464;2024-03-08T10:50:20;100558.35;;;24.08;18.90
59588;BME280;45412;54.472;18.464;2024-03-08T10:53:14;100558.39;;;23.70;19.21
59588;BME280;45412;54.472;18.464;2024-03-08T10:56:02;100558.88;;;23.40;21.06
59588;BME280;45412;54.472;18.464;2024-03-08T10:58:50;100556.33;;;23.49;21.96
59588;BME280;45412;54.472;18.464;2024-03-08T11:01:39;100554.58;;;23.60;22.20
59588;BME280;45412;54.472;18.464;2024-03-08T11:04:28;100553.79;;;23.61;22.34
59588;BME280;45412;54.472;18.464;2024-03-08T11:07:17;100547.34;;;23.44;22.20
59588;BME280;45412;54.472;18.464;2024-03-08T11:10:19;100548.23;;;23.37;22.65
59588;BME280;45412;54.472;18.464;2024-03-08T11:13:37;100547.52;;;23.44;22.80
59588;BME280;45412;54.472;18.464;2024-03-08T11:22:04;100540.21;;;22.94;23.24
59588;BME280;45412;54.472;18.464;2024-03-08T11:24:57;100540.11;;;22.51;23.56
59588;BME280;45412;54.472;18.464;2024-03-08T11:28:06;100538.03;;;22.27;24.11
59588;BME280;45412;54.472;18.464;2024-03-08T11:33:47;100535.80;;;21.97;24.62
59588;BME280;45412;54.472;18.464;2024-03-08T11:36:37;100536.30;;;21.76;24.77
59588;BME280;45412;54.472;18.464;2024-03-08T11:39:26;100536.83;;;21.36;25.29
59588;BME280;45412;54.472;18.464;2024-03-08T11:42:14;100533.39;;;20.93;26.03
59588;BME280;45412;54.472;18.464;2024-03-08T11:45:08;100529.83;;;20.33;26.52
59588;BME280;45412;54.472;18.464;2024-03-08T11:47:59;100531.56;;;19.86;27.14
59588;BME280;45412;54.472;18.464;2024-03-08T11:50:59;100532.88;;;19.42;27.54
59588;BME280;45412;54.472;18.464;2024-03-08T11:53:49;100533.29;;;18.98;28.27
59588;BME280;45412;54.472;18.464;2024-03-08T11:56:40;100530.83;;;18.75;28.69
59588;BME280;45412;54.472;18.464;2024-03-08T11:59:28;100524.66;;;18.53;29.04
59588;BME280;45412;54.472;18.464;2024-03-08T12:02:16;100522.23;;;18.24;29.37
59588;BME280;45412;54.472;18.464;2024-03-08T12:05:06;100519.27;;;18.04;29.67
59588;BME280;45412;54.472;18.464;2024-03-08T12:07:57;100514.46;;;17.61;30.18
59588;BME280;45412;54.472;18.464;2024-03-08T12:10:46;100514.67;;;17.06;30.98
59588;BME280;45412;54.472;18.464;2024-03-08T12:13:34;100513.45;;;16.60;31.67
59588;BME280;45412;54.472;18.464;2024-03-08T12:16:23;100510.35;;;16.21;32.21
59588;BME280;45412;54.472;18.464;2024-03-08T12:19:11;100511.09;;;15.90;32.77
59588;BME280;45412;54.472;18.464;2024-03-08T12:22:08;100510.04;;;15.57;33.38
59588;BME280;45412;54.472;18.464;2024-03-08T12:25:05;100511.20;;;15.34;33.95
59588;BME280;45412;54.472;18.464;2024-03-08T12:28:10;100513.10;;;15.03;34.25
59588;BME280;45412;54.472;18.464;2024-03-08T12:31:00;100511.77;;;14.57;35.10
59588;BME280;45412;54.472;18.464;2024-03-08T12:33:55;100507.03;;;14.01;35.98
59588;BME280;45412;54.472;18.464;2024-03-08T12:36:51;100509.95;;;13.49;36.89
59588;BME280;45412;54.472;18.464;2024-03-08T12:39:41;100506.61;;;12.96;37.96
59588;BME280;45412;54.472;18.464;2024-03-08T12:42:33;100503.50;;;12.40;39.48
59588;BME280;45412;54.472;18.464;2024-03-08T12:45:23;100502.95;;;11.87;40.33
59588;BME280;45412;54.472;18.464;2024-03-08T12:48:14;100503.61;;;11.40;41.35
59588;BME280;45412;54.472;18.464;2024-03-08T12:51:03;100505.09;;;10.85;42.47
59588;BME280;45412;54.472;18.464;2024-03-08T12:53:50;100509.63;;;10.36;43.72
59588;BME280;45412;54.472;18.464;2024-03-08T12:56:43;100503.31;;;9.88;44.77
59588;BME280;45412;54.472;18.464;2024-03-08T12:59:31;100506.02;;;9.48;46.58
59588;BME280;45412;54.472;18.464;2024-03-08T13:02:19;100506.01;;;9.07;47.29
59588;BME280;45412;54.472;18.464;2024-03-08T13:05:08;100506.28;;;8.80;48.25
59588;BME280;45412;54.472;18.464;2024-03-08T13:07:58;100505.96;;;8.54;49.10
59588;BME280;45412;54.472;18.464;2024-03-08T13:10:45;100503.35;;;8.26;50.52
59588;BME280;45412;54.472;18.464;2024-03-08T13:13:34;100506.63;;;7.90;51.39
59588;BME280;45412;54.472;18.464;2024-03-08T13:16:27;100508.15;;;7.63;52.27
59588;BME280;45412;54.472;18.464;2024-03-08T13:19:17;100506.90;;;7.52;53.42
59588;BME280;45412;54.472;18.464;2024-03-08T13:22:05;100500.54;;;7.45;54.32
59588;BME280;45412;54.472;18.464;2024-03-08T13:24:53;100500.02;;;7.33;55.22
59588;BME280;45412;54.472;18.464;2024-03-08T13:27:41;100502.60;;;7.19;55.07
59588;BME280;45412;54.472;18.464;2024-03-08T13:30:32;100509.41;;;7.04;56.10
59588;BME280;45412;54.472;18.464;2024-03-08T13:33:20;100506.65;;;6.93;57.13
59588;BME280;45412;54.472;18.464;2024-03-08T13:36:09;100504.03;;;6.83;57.46
59588;BME280;45412;54.472;18.464;2024-03-08T13:39:02;100501.05;;;6.70;57.31
59588;BME280;45412;54.472;18.464;2024-03-08T13:41:57;100497.13;;;6.57;57.90
59588;BME280;45412;54.472;18.464;2024-03-08T13:44:46;100492.00;;;6.48;58.20
59588;BME280;45412;54.472;18.464;2024-03-08T13:47:33;100489.70;;;6.35;58.86
59588;BME280;45412;54.472;18.464;2024-03-08T13:50:21;100489.71;;;6.18;58.96
59588;BME280;45412;54.472;18.464;2024-03-08T13:53:10;100485.02;;;6.03;60.00
59588;BME280;45412;54.472;18.464;2024-03-08T13:55:58;100483.50;;;5.91;61.54
59588;BME280;45412;54.472;18.464;2024-03-08T13:58:47;100481.88;;;5.85;62.19
59588;BME280;45412;54.472;18.464;2024-03-08T14:01:39;100483.11;;;5.78;62.23
59588;BME280;45412;54.472;18.464;2024-03-08T14:04:26;100482.47;;;5.66;62.42
59588;BME280;45412;54.472;18.464;2024-03-08T14:07:15;100487.77;;;5.55;63.21
59588;BME280;45412;54.472;18.464;2024-03-08T14:10:04;100483.66;;;5.46;62.75
59588;BME280;45412;54.472;18.464;2024-03-08T14:12:54;100483.61;;;5.32;63.94
59588;BME280;45412;54.472;18.464;2024-03-08T14:15:42;100481.84;;;5.25;63.84
59588;BME280;45412;54.472;18.464;2024-03-08T14:18:30;100478.20;;;5.14;64.19
59588;BME280;45412;54.472;18.464;2024-03-08T14:21:17;100476.29;;;5.05;64.63
59588;BME280;45412;54.472;18.464;2024-03-08T14:24:06;100469.42;;;4.99;64.56
59588;BME280;45412;54.472;18.464;2024-03-08T14:26:53;100467.83;;;4.91;65.13
59588;BME280;45412;54.472;18.464;2024-03-08T14:29:41;100471.38;;;4.87;65.90
59588;BME280;45412;54.472;18.464;2024-03-08T14:32:31;100469.36;;;4.81;66.09
59588;BME280;45412;54.472;18.464;2024-03-08T14:35:18;100464.73;;;4.75;65.93
59588;BME280;45412;54.472;18.464;2024-03-08T14:38:08;100467.58;;;4.67;66.46
59588;BME280;45412;54.472;18.464;2024-03-08T14:41:00;100469.46;;;4.60;66.81
59588;BME280;45412;54.472;18.464;2024-03-08T14:43:49;100467.42;;;4.51;67.04
59588;BME280;45412;54.472;18.464;2024-03-08T14:46:37;100463.73;;;4.39;66.81